createdAt,value
2022-10-18T00:02:44.490Z,39.67
2022-10-18T00:05:29.977Z,32.17
2022-10-18T00:08:16.564Z,35.72
2022-10-18T00:11:02.304Z,40.47
2022-10-18T00:13:47.437Z,38.72
2022-10-18T00:16:32.964Z,38.88
2022-10-18T00:19:18.318Z,39.30
2022-10-18T00:22:03.251Z,38.78
2022-10-18T00:24:48.460Z,39.15
2022-10-18T00:27:34.053Z,37.42
2022-10-18T00:30:19.319Z,41.25
2022-10-18T00:33:04.211Z,37.00
2022-10-18T00:35:49.210Z,39.17
2022-10-18T00:38:34.284Z,37.83
2022-10-18T00:41:25.753Z,40.95
2022-10-18T00:44:10.890Z,38.05
2022-10-18T00:47:01.858Z,37.83
2022-10-18T00:49:51.581Z,36.60
2022-10-18T00:52:42.095Z,34.78
2022-10-18T00:55:28.709Z,36.70
2022-10-18T00:58:16.552Z,37.10
2022-10-18T01:01:01.473Z,37.50
2022-10-18T01:03:47.573Z,38.72
2022-10-18T01:06:40.973Z,37.53
2022-10-18T01:09:52.341Z,36.70
2022-10-18T01:12:59.017Z,38.60
2022-10-18T01:16:05.216Z,38.20
2022-10-18T01:18:57.433Z,35.88
2022-10-18T01:22:14.551Z,35.50
2022-10-18T01:25:15.203Z,33.45
2022-10-18T01:28:27.794Z,34.13
2022-10-18T01:31:20.822Z,36.20
2022-10-18T01:34:10.144Z,35.92
2022-10-18T01:36:56.884Z,35.40
2022-10-18T01:39:46.633Z,38.17
2022-10-18T01:42:32.792Z,38.25
2022-10-18T01:45:21.130Z,35.83
2022-10-18T01:48:06.786Z,32.17
2022-10-18T01:50:53.067Z,36.13
2022-10-18T01:53:38.435Z,47.67
2022-10-18T01:56:46.237Z,28.25
2022-10-18T01:59:46.801Z,38.85
2022-10-18T02:02:57.913Z,41.42
2022-10-18T02:05:47.112Z,33.80
2022-10-18T02:08:43.026Z,37.72
2022-10-18T02:11:31.018Z,26.70
2022-10-18T02:14:18.740Z,29.27
2022-10-18T02:17:07.765Z,35.08
2022-10-18T02:19:55.869Z,37.58
2022-10-18T02:22:44.027Z,37.50
2022-10-18T02:25:31.529Z,37.22
2022-10-18T02:28:16.604Z,38.78
2022-10-18T02:31:20.305Z,37.42
2022-10-18T02:34:29.125Z,38.00
2022-10-18T02:37:16.578Z,39.85
2022-10-18T02:40:03.950Z,41.35
2022-10-18T02:42:56.555Z,44.92
2022-10-18T02:45:41.747Z,44.38
2022-10-18T02:48:26.976Z,41.70
2022-10-18T02:51:12.104Z,41.83
2022-10-18T02:53:57.165Z,40.05
2022-10-18T02:56:42.065Z,38.90
2022-10-18T02:59:27.025Z,39.53
2022-10-18T03:02:12.562Z,36.08
2022-10-18T03:04:57.619Z,38.05
2022-10-18T03:07:42.771Z,38.95
2022-10-18T03:10:27.780Z,39.13
2022-10-18T03:13:13.468Z,39.83
2022-10-18T03:15:58.643Z,37.55
2022-10-18T03:18:43.917Z,40.15
2022-10-18T03:21:28.858Z,37.95
2022-10-18T03:24:13.701Z,39.15
2022-10-18T03:26:58.691Z,32.75
2022-10-18T03:29:44.343Z,34.90
2022-10-18T03:32:29.591Z,37.25
2022-10-18T03:35:15.540Z,37.40
2022-10-18T03:38:00.644Z,38.58
2022-10-18T03:40:45.405Z,40.83
2022-10-18T03:43:30.500Z,38.50
2022-10-18T03:46:16.009Z,35.20
2022-10-18T03:49:01.522Z,34.50
2022-10-18T03:51:46.688Z,35.47
2022-10-18T03:54:32.750Z,36.03
2022-10-18T03:57:17.647Z,32.80
2022-10-18T04:00:04.846Z,35.72
2022-10-18T04:02:53.322Z,33.15
2022-10-18T04:05:40.933Z,36.00
2022-10-18T04:08:25.685Z,39.20
2022-10-18T04:11:10.765Z,33.13
2022-10-18T04:13:56.044Z,34.53
2022-10-18T04:16:41.571Z,36.15
2022-10-18T04:19:26.876Z,28.85
2022-10-18T04:22:12.007Z,23.17
2022-10-18T04:24:57.325Z,34.60
2022-10-18T04:27:44.014Z,35.75
2022-10-18T04:30:29.301Z,34.13
2022-10-18T04:33:14.140Z,32.33
2022-10-18T04:35:59.546Z,29.98
2022-10-18T04:38:45.572Z,32.80
2022-10-18T04:41:30.957Z,32.53
2022-10-18T04:44:16.219Z,32.42
2022-10-18T04:47:01.524Z,33.40
2022-10-18T04:49:47.010Z,31.42
2022-10-18T04:52:32.407Z,30.20
2022-10-18T04:55:17.362Z,34.67
2022-10-18T04:58:02.534Z,36.47
2022-10-18T05:00:47.466Z,36.45
2022-10-18T05:03:32.572Z,33.33
2022-10-18T05:06:17.665Z,33.05
2022-10-18T05:09:03.734Z,33.30
2022-10-18T05:11:49.213Z,30.40
2022-10-18T05:14:34.596Z,33.45
2022-10-18T05:17:19.939Z,30.85
2022-10-18T05:20:05.341Z,33.00
2022-10-18T05:22:50.356Z,31.98
2022-10-18T05:25:35.273Z,30.83
2022-10-18T05:28:38.675Z,29.48
2022-10-18T05:31:25.168Z,28.85
2022-10-18T05:34:10.549Z,28.65
2022-10-18T05:36:55.598Z,30.40
2022-10-18T05:39:40.714Z,28.20
2022-10-18T05:42:26.345Z,29.98
2022-10-18T05:45:11.739Z,29.98
2022-10-18T05:47:57.139Z,29.23
2022-10-18T05:50:42.957Z,27.55
2022-10-18T05:53:36.737Z,28.55
2022-10-18T05:56:23.131Z,29.73
2022-10-18T05:59:08.152Z,38.47
2022-10-18T06:01:53.561Z,29.02
2022-10-18T06:04:38.920Z,27.35
2022-10-18T06:07:23.940Z,26.02
2022-10-18T06:10:09.777Z,26.00
2022-10-18T06:12:55.178Z,23.90
2022-10-18T06:15:40.769Z,23.48
2022-10-18T06:18:25.509Z,24.15
2022-10-18T06:21:10.497Z,25.40
2022-10-18T06:23:58.177Z,25.77
2022-10-18T06:26:43.407Z,25.35
2022-10-18T06:29:28.358Z,24.85
2022-10-18T06:32:15.702Z,24.60
2022-10-18T06:35:01.119Z,26.98
2022-10-18T06:37:46.600Z,26.55
2022-10-18T06:40:31.889Z,26.33
2022-10-18T06:43:21.071Z,27.45
2022-10-18T06:46:07.634Z,38.30
2022-10-18T06:48:52.780Z,25.25
2022-10-18T06:51:38.263Z,28.70
2022-10-18T06:54:23.555Z,25.25
2022-10-18T06:57:08.619Z,26.45
2022-10-18T06:59:54.126Z,25.20
2022-10-18T07:02:38.976Z,24.23
2022-10-18T07:05:24.025Z,22.55
2022-10-18T07:08:09.727Z,22.27
2022-10-18T07:10:55.281Z,25.35
2022-10-18T07:13:40.448Z,24.25
2022-10-18T07:16:25.285Z,22.33
2022-10-18T07:19:10.378Z,22.30
2022-10-18T07:21:55.655Z,22.83
2022-10-18T07:24:40.722Z,22.13
2022-10-18T07:27:26.192Z,24.05
2022-10-18T07:30:11.773Z,24.27
2022-10-18T07:32:56.812Z,25.85
2022-10-18T07:35:41.719Z,24.45
2022-10-18T07:38:26.716Z,24.52
2022-10-18T07:41:13.367Z,23.65
2022-10-18T07:43:58.713Z,23.98
2022-10-18T07:46:43.828Z,24.13
2022-10-18T07:49:28.932Z,24.48
2022-10-18T07:52:14.175Z,24.42
2022-10-18T07:54:59.400Z,23.45
2022-10-18T07:57:44.432Z,24.67
2022-10-18T08:00:29.823Z,22.90
2022-10-18T08:03:15.575Z,25.35
2022-10-18T08:06:00.512Z,26.42
2022-10-18T08:08:46.598Z,25.77
2022-10-18T08:11:32.578Z,25.00
2022-10-18T08:14:17.560Z,26.75
2022-10-18T08:17:02.729Z,28.15
2022-10-18T08:19:58.371Z,27.90
2022-10-18T08:22:57.723Z,28.67
2022-10-18T08:25:44.801Z,27.58
2022-10-18T08:28:29.838Z,29.02
2022-10-18T08:31:17.442Z,28.77
2022-10-18T08:34:02.626Z,28.45
2022-10-18T08:36:48.331Z,28.23
2022-10-18T08:39:33.504Z,29.35
2022-10-18T08:42:30.999Z,31.95
2022-10-18T08:45:30.262Z,28.65
2022-10-18T08:48:43.647Z,31.67
2022-10-18T08:51:43.894Z,28.70
2022-10-18T08:54:39.433Z,30.05
2022-10-18T08:57:24.680Z,30.77
2022-10-18T09:00:18.103Z,30.10
2022-10-18T09:03:18.742Z,38.63
2022-10-18T09:06:28.371Z,35.20
2022-10-18T09:09:53.759Z,40.33
2022-10-18T09:13:01.069Z,39.35
2022-10-18T09:16:01.466Z,46.67
2022-10-18T09:19:11.450Z,44.80
2022-10-18T09:22:09.713Z,48.13
2022-10-18T09:25:15.644Z,51.10
2022-10-18T09:28:36.260Z,47.47
2022-10-18T09:31:30.622Z,49.00
2022-10-18T09:34:36.108Z,49.75
2022-10-18T09:37:22.294Z,50.95
2022-10-18T09:40:25.248Z,49.05
2022-10-18T09:43:16.928Z,53.38
2022-10-18T09:46:04.946Z,52.25
2022-10-18T09:48:56.597Z,49.40
2022-10-18T09:51:43.154Z,51.13
2022-10-18T09:54:34.967Z,50.53
2022-10-18T09:57:38.625Z,51.13
2022-10-18T10:00:35.427Z,49.25
2022-10-18T10:03:20.432Z,48.70
2022-10-18T10:06:11.447Z,47.92
2022-10-18T10:09:01.988Z,46.22
2022-10-18T10:11:49.291Z,46.33
2022-10-18T10:14:43.735Z,47.72
2022-10-18T10:17:32.262Z,49.00
2022-10-18T10:20:21.981Z,46.08
2022-10-18T10:23:16.355Z,43.65
2022-10-18T10:26:07.319Z,42.70
2022-10-18T10:28:52.436Z,43.40
2022-10-18T10:31:37.717Z,40.63
2022-10-18T10:34:22.912Z,40.33
2022-10-18T10:37:25.425Z,40.83
2022-10-18T10:40:19.277Z,40.67
2022-10-18T10:43:36.427Z,40.65
2022-10-18T10:46:22.839Z,42.25
2022-10-18T10:49:42.345Z,40.28
2022-10-18T10:52:29.171Z,39.90
2022-10-18T10:55:34.906Z,40.22
2022-10-18T10:58:21.834Z,38.22
2022-10-18T11:01:23.937Z,38.65
2022-10-18T11:04:29.449Z,35.88
2022-10-18T11:07:14.480Z,33.83
2022-10-18T11:10:07.313Z,35.22
2022-10-18T11:13:21.707Z,31.20
2022-10-18T11:16:17.084Z,32.03
2022-10-18T11:19:19.339Z,29.15
2022-10-18T11:22:11.184Z,28.50
2022-10-18T11:24:56.331Z,28.63
2022-10-18T11:27:53.982Z,27.15
2022-10-18T11:31:08.406Z,24.02
2022-10-18T11:34:11.658Z,22.05
2022-10-18T11:37:27.295Z,21.95
2022-10-18T11:40:34.655Z,19.58
2022-10-18T11:43:57.041Z,20.30
2022-10-18T11:46:57.659Z,19.23
2022-10-18T11:49:46.219Z,18.70
2022-10-18T11:52:53.554Z,17.83
2022-10-18T11:56:00.607Z,16.75
2022-10-18T11:59:13.548Z,18.10
2022-10-18T12:02:20.895Z,17.42
2022-10-18T12:05:23.165Z,15.70
2022-10-18T12:08:15.367Z,16.83
2022-10-18T12:11:07.619Z,17.45
2022-10-18T12:13:55.885Z,15.43
2022-10-18T12:16:51.386Z,16.10
2022-10-18T12:19:37.538Z,17.20
2022-10-18T12:22:32.922Z,16.77
2022-10-18T12:25:18.920Z,18.83
2022-10-18T12:28:52.091Z,17.95
2022-10-18T12:31:43.411Z,17.65
2022-10-18T12:34:36.461Z,15.73
2022-10-18T12:37:48.385Z,16.60
2022-10-18T12:40:44.309Z,15.40
2022-10-18T12:43:32.580Z,14.60
2022-10-18T12:46:18.193Z,14.60
2022-10-18T12:49:05.440Z,14.27
2022-10-18T12:51:58.333Z,12.93
2022-10-18T12:55:20.062Z,12.02
2022-10-18T12:58:26.741Z,11.80
2022-10-18T13:01:11.658Z,10.45
2022-10-18T13:03:57.123Z,10.70
2022-10-18T13:06:57.568Z,9.98
2022-10-18T13:10:12.003Z,10.52
2022-10-18T13:13:39.210Z,10.00
2022-10-18T13:17:04.438Z,9.50
2022-10-18T13:20:07.663Z,7.70
2022-10-18T13:23:25.913Z,7.25
2022-10-18T13:26:20.248Z,5.63
2022-10-18T13:29:32.178Z,5.80
2022-10-18T13:32:35.580Z,5.72
2022-10-18T13:35:46.145Z,4.75
2022-10-18T13:38:40.229Z,5.00
2022-10-18T13:41:48.310Z,4.80
2022-10-18T13:44:37.396Z,4.93
2022-10-18T13:47:36.757Z,5.30
2022-10-18T13:50:21.858Z,4.57
2022-10-18T13:53:30.165Z,4.97
2022-10-18T13:56:40.618Z,5.07
2022-10-18T14:00:03.533Z,4.50
2022-10-18T14:06:42.576Z,3.85
2022-10-18T14:09:45.123Z,3.90
2022-10-18T14:12:43.540Z,4.20
2022-10-18T14:15:39.289Z,4.13
2022-10-18T14:18:45.708Z,4.38
2022-10-18T14:21:37.172Z,3.75
2022-10-18T14:24:26.171Z,3.70
2022-10-18T14:27:28.833Z,3.92
2022-10-18T14:30:16.860Z,3.80
2022-10-18T14:33:02.604Z,3.70
2022-10-18T14:36:00.573Z,3.92
2022-10-18T14:38:53.406Z,3.92
2022-10-18T14:41:52.867Z,3.10
2022-10-18T14:44:40.568Z,3.22
2022-10-18T14:47:27.736Z,2.90
2022-10-18T14:50:30.649Z,3.67
2022-10-18T14:53:20.763Z,3.00
2022-10-18T14:56:06.776Z,2.88
2022-10-18T14:58:55.099Z,3.03
2022-10-18T15:01:40.365Z,3.38
2022-10-18T15:04:28.784Z,3.10
2022-10-18T15:07:16.960Z,2.92
2022-10-18T15:10:04.390Z,3.15
2022-10-18T15:13:08.784Z,2.63
2022-10-18T15:15:55.789Z,2.67
2022-10-18T15:18:41.186Z,2.40
2022-10-18T15:21:26.607Z,2.50
2022-10-18T15:24:20.550Z,2.42
2022-10-18T15:27:12.280Z,2.65
2022-10-18T15:29:57.449Z,3.10
2022-10-18T15:32:57.494Z,2.60
2022-10-18T15:35:44.938Z,9.23
2022-10-18T15:38:31.535Z,2.97
2022-10-18T15:41:44.598Z,2.70
2022-10-18T15:44:34.587Z,2.30
2022-10-18T15:47:20.454Z,2.22
2022-10-18T15:50:35.687Z,2.40
2022-10-18T15:53:20.704Z,2.53
2022-10-18T15:56:24.812Z,2.17
2022-10-18T15:59:26.238Z,2.42
2022-10-18T16:02:14.156Z,2.22
2022-10-18T16:05:01.531Z,2.47
2022-10-18T16:07:54.412Z,2.58
2022-10-18T16:10:40.037Z,2.22
2022-10-18T16:13:26.684Z,2.47
2022-10-18T16:16:17.040Z,2.47
2022-10-18T16:19:02.799Z,2.22
2022-10-18T16:21:48.916Z,2.45
2022-10-18T16:24:34.122Z,2.50
2022-10-18T16:27:19.096Z,2.72
2022-10-18T16:30:12.943Z,2.60
2022-10-18T16:32:57.845Z,2.33
2022-10-18T16:35:42.805Z,2.47
2022-10-18T16:38:36.455Z,2.20
2022-10-18T16:41:22.320Z,2.33
2022-10-18T16:44:07.391Z,2.22
2022-10-18T16:46:54.164Z,2.22
2022-10-18T16:49:41.255Z,2.50
2022-10-18T16:52:26.310Z,2.70
2022-10-18T16:55:11.478Z,2.55
2022-10-18T16:57:56.677Z,2.42
2022-10-18T17:00:41.947Z,2.72
2022-10-18T17:03:27.247Z,2.60
2022-10-18T17:06:22.566Z,1.95
2022-10-18T17:09:09.298Z,2.38
2022-10-18T17:11:54.324Z,2.70
2022-10-18T17:14:39.378Z,3.28
2022-10-18T17:17:24.519Z,3.10
2022-10-18T17:20:19.677Z,3.00
2022-10-18T17:23:04.754Z,2.88
2022-10-18T17:26:05.011Z,2.55
2022-10-18T17:28:54.785Z,3.03
2022-10-18T17:31:40.262Z,3.38
2022-10-18T17:34:25.334Z,3.17
2022-10-18T17:37:10.510Z,3.50
2022-10-18T17:39:55.898Z,4.55
2022-10-18T17:42:41.243Z,5.13
2022-10-18T17:45:26.659Z,5.03
2022-10-18T17:48:11.769Z,9.90
2022-10-18T17:50:57.256Z,4.40
2022-10-18T17:53:42.691Z,4.22
2022-10-18T17:56:27.893Z,4.05
2022-10-18T17:59:13.107Z,3.67
2022-10-18T18:01:58.040Z,4.40
2022-10-18T18:04:43.409Z,4.32
2022-10-18T18:07:28.686Z,3.45
2022-10-18T18:10:14.759Z,3.10
2022-10-18T18:13:00.714Z,3.20
2022-10-18T18:15:45.641Z,3.80
2022-10-18T18:18:30.807Z,3.33
2022-10-18T18:21:15.987Z,3.70
2022-10-18T18:24:01.608Z,3.13
2022-10-18T18:26:46.958Z,4.43
2022-10-18T18:29:31.861Z,4.10
2022-10-18T18:32:16.972Z,4.15
2022-10-18T18:35:02.141Z,4.28
2022-10-18T18:37:50.302Z,3.70
2022-10-18T18:40:35.298Z,5.35
2022-10-18T18:43:23.813Z,4.17
2022-10-18T18:46:10.471Z,4.20
2022-10-18T18:48:59.448Z,3.40
2022-10-18T18:51:44.480Z,3.77
2022-10-18T18:54:30.011Z,4.38
2022-10-18T18:57:19.175Z,5.13
2022-10-18T19:00:04.694Z,4.40
2022-10-18T19:02:49.665Z,4.10
2022-10-18T19:05:35.630Z,4.00
2022-10-18T19:08:21.104Z,4.30
2022-10-18T19:11:09.198Z,3.77
2022-10-18T19:13:55.327Z,3.40
2022-10-18T19:16:46.201Z,3.67
2022-10-18T19:19:31.544Z,3.70
2022-10-18T19:22:16.741Z,3.80
2022-10-18T19:25:02.199Z,3.80
2022-10-18T19:27:47.453Z,3.87
2022-10-18T19:30:32.807Z,4.10
2022-10-18T19:33:19.356Z,4.20
2022-10-18T19:36:07.461Z,4.30
2022-10-18T19:38:52.654Z,3.43
2022-10-18T19:41:37.944Z,2.70
2022-10-18T19:44:24.906Z,2.97
2022-10-18T19:47:12.275Z,4.47
2022-10-18T19:49:57.379Z,4.77
2022-10-18T19:52:42.334Z,3.90
2022-10-18T19:55:27.143Z,2.83
2022-10-18T19:58:12.498Z,3.10
2022-10-18T20:00:58.269Z,3.53
2022-10-18T20:03:44.222Z,3.53
2022-10-18T20:06:31.528Z,5.10
2022-10-18T20:09:19.706Z,3.93
2022-10-18T20:12:06.018Z,3.13
2022-10-18T20:14:51.163Z,3.00
2022-10-18T20:17:36.220Z,2.47
2022-10-18T20:20:21.549Z,2.03
2022-10-18T20:23:06.866Z,3.70
2022-10-18T20:26:04.960Z,4.50
2022-10-18T20:28:52.367Z,3.60
2022-10-18T20:31:37.748Z,4.20
2022-10-18T20:34:22.735Z,4.17
2022-10-18T20:37:07.996Z,3.33
2022-10-18T20:39:53.041Z,3.37
2022-10-18T20:42:38.417Z,3.83
2022-10-18T20:45:23.752Z,5.37
2022-10-18T20:48:08.503Z,5.33
2022-10-18T20:50:54.398Z,5.73
2022-10-18T20:53:40.280Z,4.00
2022-10-18T20:56:26.767Z,3.93
2022-10-18T20:59:12.125Z,3.87
2022-10-18T21:01:56.935Z,7.30
2022-10-18T21:04:42.470Z,4.00
2022-10-18T21:07:29.407Z,3.53
2022-10-18T21:10:14.649Z,6.00
2022-10-18T21:13:00.168Z,4.57
2022-10-18T21:15:54.022Z,4.50
2022-10-18T21:18:39.290Z,5.03
2022-10-18T21:21:25.007Z,4.43
2022-10-18T21:24:11.776Z,4.50
2022-10-18T21:26:56.925Z,3.60
2022-10-18T21:29:42.257Z,3.70
2022-10-18T21:32:27.109Z,2.70
2022-10-18T21:35:12.038Z,3.47
2022-10-18T21:37:56.909Z,3.93
2022-10-18T21:40:42.331Z,5.20
2022-10-18T21:43:27.841Z,5.10
2022-10-18T21:46:14.368Z,5.50
2022-10-18T21:48:59.777Z,5.37
2022-10-18T21:51:45.052Z,5.07
2022-10-18T21:54:30.473Z,4.80
2022-10-18T21:57:15.389Z,5.33
2022-10-18T22:00:00.906Z,5.00
2022-10-18T22:02:46.205Z,4.83
2022-10-18T22:05:31.194Z,4.27
2022-10-18T22:08:16.621Z,4.50
2022-10-18T22:11:02.494Z,5.17
2022-10-18T22:13:47.817Z,8.40
2022-10-18T22:16:33.234Z,6.43
2022-10-18T22:19:18.512Z,5.90
2022-10-18T22:22:03.956Z,4.90
2022-10-18T22:24:48.842Z,4.60
2022-10-18T22:27:34.767Z,5.50
2022-10-18T22:30:19.823Z,4.63
2022-10-18T22:33:05.568Z,5.37
2022-10-18T22:35:50.763Z,2.93
2022-10-18T22:38:36.335Z,3.70
2022-10-18T22:41:21.241Z,3.43
2022-10-18T22:44:07.391Z,4.00
2022-10-18T22:46:52.509Z,6.23
2022-10-18T22:49:37.480Z,5.87
2022-10-18T22:52:24.701Z,5.73
2022-10-18T22:55:09.791Z,8.87
2022-10-18T22:57:55.581Z,6.30
2022-10-18T23:00:40.907Z,5.57
2022-10-18T23:03:26.098Z,6.40
2022-10-18T23:06:29.575Z,5.00
2022-10-18T23:09:16.221Z,5.10
2022-10-18T23:12:01.179Z,4.90
2022-10-18T23:14:46.372Z,6.47
2022-10-18T23:17:31.749Z,6.97
2022-10-18T23:20:17.416Z,6.73
2022-10-18T23:23:03.875Z,5.50
2022-10-18T23:25:53.795Z,4.90
2022-10-18T23:28:41.591Z,4.10
2022-10-18T23:31:29.127Z,4.60
2022-10-18T23:34:14.714Z,4.47
2022-10-18T23:37:00.028Z,5.00
2022-10-18T23:39:45.119Z,4.77
2022-10-18T23:42:30.802Z,6.33
2022-10-18T23:45:16.063Z,6.33
2022-10-18T23:48:01.602Z,6.93
2022-10-18T23:50:47.200Z,7.73
2022-10-18T23:53:33.108Z,7.87
2022-10-18T23:56:18.417Z,6.93
2022-10-18T23:59:03.616Z,6.13
